Time;durP1;ratioP1;P1;durP2;ratioP2;P2;SDS_P1;SDS_P2;PMS_P1;PMS_P2;Temp;Humidity;BMP_temperature;BMP_pressure;BME280_temperature;BME280_humidity;BME280_pressure;Samples;Min_cycle;Max_cycle;Signal;HPM_P1;HPM_P2
2023/05/23 00:01:41;;;;;;;3.75;2.67;;;;;;;;;;5075818;28;20446;-83
2023/05/23 00:04:08;;;;;;;3.90;2.47;;;;;;;;;;5076088;28;20490;-83
2023/05/23 00:06:34;;;;;;;4.13;3.28;;;;;;;;;;5075698;28;20024;-83
2023/05/23 00:09:00;;;;;;;3.20;2.53;;;;;;;;;;5076280;28;20024;-83
2023/05/23 00:11:27;;;;;;;5.95;3.30;;;;;;;;;;5076019;28;20508;-83
2023/05/23 00:13:53;;;;;;;3.42;2.55;;;;;;;;;;5093998;28;20043;-83
2023/05/23 00:16:20;;;;;;;3.72;2.72;;;;;;;;;;5059374;28;20024;-83
2023/05/23 00:18:45;;;;;;;3.38;2.70;;;;;;;;;;5058893;28;20372;-82
2023/05/23 00:21:12;;;;;;;3.42;2.47;;;;;;;;;;5075749;28;20058;-83
2023/05/23 00:23:41;;;;;;;4.63;2.95;;;;;;;;;;5093756;28;20028;-82
2023/05/23 00:26:07;;;;;;;3.60;2.75;;;;;;;;;;5075476;28;20032;-82
2023/05/23 00:28:32;;;;;;;4.53;3.00;;;;;;;;;;5075902;28;20081;-82
2023/05/23 00:30:57;;;;;;;2.95;2.55;;;;;;;;;;5075242;28;20032;-82
2023/05/23 00:33:23;;;;;;;3.63;2.50;;;;;;;;;;5075262;28;20034;-83
2023/05/23 00:35:48;;;;;;;4.13;2.88;;;;;;;;;;5075402;28;20028;-82
2023/05/23 00:38:14;;;;;;;3.83;2.72;;;;;;;;;;5093786;28;20477;-83
2023/05/23 00:40:40;;;;;;;3.30;2.83;;;;;;;;;;5075360;28;20402;-83
2023/05/23 00:43:07;;;;;;;3.97;2.97;;;;;;;;;;5093316;28;20032;-83
2023/05/23 00:45:32;;;;;;;3.90;2.83;;;;;;;;;;5075476;28;20040;-83
2023/05/23 00:47:58;;;;;;;3.90;3.08;;;;;;;;;;5058685;28;20119;-82
2023/05/23 00:50:28;;;;;;;3.75;2.72;;;;;;;;;;5075301;28;20070;-83
2023/05/23 00:52:53;;;;;;;3.60;2.78;;;;;;;;;;5093608;28;20028;-84
2023/05/23 00:55:19;;;;;;;5.00;3.00;;;;;;;;;;5041920;28;20024;-83
2023/05/23 00:57:44;;;;;;;4.68;2.90;;;;;;;;;;5075343;28;20082;-82
2023/05/23 01:00:14;;;;;;;5.55;2.83;;;;;;;;;;5093214;28;20498;-82
2023/05/23 01:02:43;;;;;;;4.75;2.83;;;;;;;;;;5058220;28;20482;-83
2023/05/23 01:05:13;;;;;;;4.97;2.90;;;;;;;;;;5077120;28;20028;-83
2023/05/23 01:07:39;;;;;;;4.53;2.70;;;;;;;;;;5079565;28;20047;-83
2023/05/23 01:10:05;;;;;;;7.20;2.70;;;;;;;;;;5079108;28;20475;-83
2023/05/23 01:12:57;;;;;;;5.00;2.83;;;;;;;;;;5097357;28;20075;-82
2023/05/23 01:15:32;;;;;;;5.43;2.95;;;;;;;;;;5097287;28;20028;-82
2023/05/23 01:18:02;;;;;;;4.95;2.90;;;;;;;;;;5079188;28;20067;-82
2023/05/23 01:20:32;;;;;;;4.07;2.90;;;;;;;;;;5097050;28;20024;-83
2023/05/23 01:23:00;;;;;;;3.22;2.70;;;;;;;;;;5078962;28;20058;-83
2023/05/23 01:25:49;;;;;;;3.33;2.47;;;;;;;;;;5097102;28;20528;-82
2023/05/23 01:28:16;;;;;;;4.68;2.78;;;;;;;;;;5096831;28;20024;-82
2023/05/23 01:30:43;;;;;;;6.00;2.80;;;;;;;;;;5078894;28;20023;-82
2023/05/23 01:33:10;;;;;;;4.05;2.45;;;;;;;;;;5096108;28;20101;-83
2023/05/23 01:35:36;;;;;;;3.28;2.80;;;;;;;;;;5096764;28;20024;-82
2023/05/23 01:38:01;;;;;;;4.57;2.60;;;;;;;;;;5095282;28;20491;-84
2023/05/23 01:40:27;;;;;;;3.08;2.53;;;;;;;;;;5079183;28;20032;-84
2023/05/23 01:42:54;;;;;;;3.85;2.55;;;;;;;;;;5063150;28;20566;-84
2023/05/23 01:45:20;;;;;;;4.45;2.75;;;;;;;;;;5078397;28;20040;-84
2023/05/23 01:47:48;;;;;;;3.92;2.38;;;;;;;;;;5078753;28;20402;-84
2023/05/23 01:50:14;;;;;;;3.85;2.72;;;;;;;;;;5078218;28;20493;-84
2023/05/23 01:52:40;;;;;;;5.00;2.58;;;;;;;;;;5078672;28;20020;-83
2023/05/23 01:55:10;;;;;;;3.92;2.53;;;;;;;;;;5096372;28;20103;-83
2023/05/23 01:57:36;;;;;;;3.70;2.72;;;;;;;;;;5079352;28;20114;-83
2023/05/23 02:00:06;;;;;;;3.78;2.55;;;;;;;;;;5079752;28;20035;-83
2023/05/23 02:02:33;;;;;;;3.85;2.50;;;;;;;;;;5096081;28;20028;-82
2023/05/23 02:04:58;;;;;;;3.80;2.70;;;;;;;;;;5078221;28;20066;-83
2023/05/23 02:07:24;;;;;;;4.22;2.70;;;;;;;;;;5061252;28;20066;-84
2023/05/23 02:09:49;;;;;;;3.47;2.60;;;;;;;;;;5096453;28;20467;-83
2023/05/23 02:12:14;;;;;;;4.03;2.70;;;;;;;;;;5078206;28;20032;-83
2023/05/23 02:14:41;;;;;;;8.60;2.63;;;;;;;;;;5096409;28;20506;-83
2023/05/23 02:17:08;;;;;;;4.10;2.83;;;;;;;;;;5095609;28;20043;-82
2023/05/23 02:19:34;;;;;;;3.08;2.47;;;;;;;;;;5061937;28;20024;-83
2023/05/23 02:22:00;;;;;;;4.00;3.00;;;;;;;;;;5077593;28;20505;-83
2023/05/23 02:24:25;;;;;;;4.03;2.47;;;;;;;;;;5078153;28;20482;-83
2023/05/23 02:26:51;;;;;;;4.25;2.92;;;;;;;;;;5077495;28;20056;-83
2023/05/23 02:29:17;;;;;;;3.50;2.67;;;;;;;;;;5095791;28;20031;-83
2023/05/23 02:31:42;;;;;;;4.97;2.67;;;;;;;;;;5095690;28;20032;-84
2023/05/23 02:34:08;;;;;;;3.60;2.75;;;;;;;;;;5061054;28;20031;-84
2023/05/23 02:36:35;;;;;;;3.75;2.58;;;;;;;;;;5095697;28;20028;-84
2023/05/23 02:39:02;;;;;;;4.88;2.85;;;;;;;;;;5061802;28;20030;-84
2023/05/23 02:41:27;;;;;;;4.05;2.85;;;;;;;;;;5077483;28;20067;-83
2023/05/23 02:43:53;;;;;;;4.63;2.88;;;;;;;;;;5077264;28;20072;-83
2023/05/23 02:46:18;;;;;;;4.03;2.70;;;;;;;;;;5095301;28;20496;-83
2023/05/23 02:48:44;;;;;;;4.20;2.72;;;;;;;;;;5095886;28;20024;-83
2023/05/23 02:51:09;;;;;;;3.30;2.65;;;;;;;;;;5060650;28;20028;-83
2023/05/23 02:53:35;;;;;;;8.98;3.03;;;;;;;;;;5077112;28;20035;-83
2023/05/23 02:56:00;;;;;;;6.28;2.80;;;;;;;;;;5095312;28;20031;-84
2023/05/23 02:58:25;;;;;;;2.88;2.30;;;;;;;;;;5077238;28;20028;-83
2023/05/23 03:00:51;;;;;;;3.38;2.53;;;;;;;;;;5076909;28;20106;-83
2023/05/23 03:03:17;;;;;;;4.35;3.00;;;;;;;;;;5077214;28;20476;-83
2023/05/23 03:05:42;;;;;;;6.60;2.72;;;;;;;;;;5077144;28;20115;-83
2023/05/23 03:08:08;;;;;;;4.07;2.40;;;;;;;;;;5094917;28;20055;-83
2023/05/23 03:10:33;;;;;;;2.95;2.50;;;;;;;;;;5076855;28;20027;-84
2023/05/23 03:12:59;;;;;;;4.38;3.15;;;;;;;;;;5076632;28;20032;-83
2023/05/23 03:15:24;;;;;;;4.63;2.63;;;;;;;;;;5078265;28;20047;-83
2023/05/23 03:17:49;;;;;;;3.53;2.60;;;;;;;;;;5079857;28;20024;-83
2023/05/23 03:20:15;;;;;;;4.30;2.75;;;;;;;;;;5076857;28;20055;-84
2023/05/23 03:22:42;;;;;;;4.72;2.40;;;;;;;;;;5077059;28;20024;-83
2023/05/23 03:25:08;;;;;;;4.03;2.70;;;;;;;;;;5078341;28;20115;-83
2023/05/23 03:27:33;;;;;;;4.32;2.70;;;;;;;;;;5096670;28;20105;-83
2023/05/23 03:29:59;;;;;;;6.35;2.80;;;;;;;;;;5062774;28;20055;-82
2023/05/23 03:32:24;;;;;;;5.40;3.10;;;;;;;;;;5081729;28;20036;-82
2023/05/23 03:34:49;;;;;;;4.32;2.78;;;;;;;;;;5083602;28;20409;-83
2023/05/23 03:37:15;;;;;;;3.40;2.50;;;;;;;;;;5099379;28;20032;-83
2023/05/23 03:39:40;;;;;;;3.33;2.50;;;;;;;;;;5075144;28;20024;-84
2023/05/23 03:42:06;;;;;;;4.60;3.08;;;;;;;;;;5095702;28;20074;-83
2023/05/23 03:44:31;;;;;;;4.60;2.97;;;;;;;;;;5068429;28;20044;-84
2023/05/23 03:46:57;;;;;;;6.82;2.70;;;;;;;;;;5079531;28;20032;-83
2023/05/23 03:49:22;;;;;;;4.03;2.92;;;;;;;;;;5097111;28;20054;-84
2023/05/23 03:51:48;;;;;;;3.97;2.70;;;;;;;;;;5061261;28;20064;-84
2023/05/23 03:54:13;;;;;;;4.35;2.90;;;;;;;;;;5082319;28;20016;-83
2023/05/23 03:56:38;;;;;;;3.47;2.60;;;;;;;;;;5077367;28;20067;-83
2023/05/23 03:59:04;;;;;;;5.25;3.03;;;;;;;;;;5077643;28;20123;-83
2023/05/23 04:01:29;;;;;;;6.63;3.10;;;;;;;;;;5098395;28;20028;-84
2023/05/23 04:03:54;;;;;;;5.40;3.15;;;;;;;;;;5096736;28;20382;-84
2023/05/23 04:06:21;;;;;;;5.60;3.40;;;;;;;;;;5077769;28;20165;-84
2023/05/23 04:08:47;;;;;;;4.22;3.00;;;;;;;;;;5095997;28;20039;-84
2023/05/23 04:11:12;;;;;;;6.75;3.47;;;;;;;;;;5059522;28;20028;-84
2023/05/23 04:13:38;;;;;;;6.05;3.17;;;;;;;;;;5076466;28;20048;-84
2023/05/23 04:16:04;;;;;;;6.80;3.80;;;;;;;;;;5059290;28;20059;-84
2023/05/23 04:18:32;;;;;;;8.10;3.90;;;;;;;;;;5059934;28;20418;-84
2023/05/23 04:20:58;;;;;;;9.70;3.95;;;;;;;;;;5076280;28;20028;-80
2023/05/23 04:23:23;;;;;;;11.73;4.10;;;;;;;;;;5075924;28;20043;-83
2023/05/23 04:25:50;;;;;;;6.70;3.83;;;;;;;;;;5075914;28;20035;-82
2023/05/23 04:28:16;;;;;;;13.80;4.55;;;;;;;;;;5095532;28;20107;-83
2023/05/23 04:30:42;;;;;;;8.77;4.68;;;;;;;;;;5096014;28;20111;-83
2023/05/23 04:33:08;;;;;;;7.72;4.40;;;;;;;;;;5094411;28;20454;-83
2023/05/23 04:35:37;;;;;;;9.93;4.82;;;;;;;;;;5076591;28;20024;-81
2023/05/23 04:38:03;;;;;;;12.63;4.07;;;;;;;;;;5094084;28;20455;-81
2023/05/23 04:40:29;;;;;;;8.23;4.13;;;;;;;;;;5093846;28;20032;-82
2023/05/23 04:42:56;;;;;;;9.30;4.55;;;;;;;;;;5078607;28;20542;-82
2023/05/23 04:45:21;;;;;;;10.23;4.72;;;;;;;;;;5096465;28;20115;-85
2023/05/23 04:47:46;;;;;;;8.45;4.30;;;;;;;;;;5061408;28;20031;-82
2023/05/23 04:50:15;;;;;;;11.05;5.10;;;;;;;;;;5096664;28;20039;-84
2023/05/23 04:52:40;;;;;;;19.75;5.60;;;;;;;;;;5080021;28;20056;-83
2023/05/23 04:55:07;;;;;;;15.25;6.05;;;;;;;;;;5044442;28;20424;-85
2023/05/23 04:57:33;;;;;;;16.83;6.55;;;;;;;;;;5067239;28;20028;-86
2023/05/23 04:59:59;;;;;;;20.48;7.30;;;;;;;;;;5076064;28;20028;-85
2023/05/23 05:02:25;;;;;;;18.85;7.20;;;;;;;;;;5059312;28;20114;-84
2023/05/23 05:04:51;;;;;;;24.40;7.22;;;;;;;;;;5059036;28;20398;-84
2023/05/23 05:07:16;;;;;;;20.98;7.78;;;;;;;;;;5058663;28;20039;-86
2023/05/23 05:09:42;;;;;;;21.05;7.20;;;;;;;;;;5093257;28;20030;-87
2023/05/23 05:12:07;;;;;;;26.00;7.30;;;;;;;;;;5093142;28;20035;-88
2023/05/23 05:14:33;;;;;;;22.80;7.30;;;;;;;;;;5075153;28;20047;-86
2023/05/23 05:16:58;;;;;;;17.10;5.93;;;;;;;;;;5093454;28;20028;-84
2023/05/23 05:19:24;;;;;;;19.67;6.93;;;;;;;;;;5074845;28;20044;-84
2023/05/23 05:21:49;;;;;;;19.27;6.55;;;;;;;;;;5093070;28;20394;-85
2023/05/23 05:24:15;;;;;;;20.83;7.53;;;;;;;;;;5075304;28;20471;-85
2023/05/23 05:26:41;;;;;;;18.27;6.38;;;;;;;;;;5093120;28;20032;-85
2023/05/23 05:29:06;;;;;;;14.93;5.68;;;;;;;;;;5092988;28;20391;-84
2023/05/23 05:31:32;;;;;;;16.88;5.90;;;;;;;;;;5093220;28;20032;-85
2023/05/23 05:33:57;;;;;;;14.65;6.20;;;;;;;;;;5074847;28;20024;-85
2023/05/23 05:36:23;;;;;;;14.45;5.90;;;;;;;;;;5075181;28;20024;-84
2023/05/23 05:38:48;;;;;;;14.75;4.88;;;;;;;;;;5092988;28;20382;-85
2023/05/23 05:41:14;;;;;;;13.45;4.97;;;;;;;;;;5074889;28;20028;-85
2023/05/23 05:43:39;;;;;;;13.90;5.68;;;;;;;;;;5093314;28;20044;-85
2023/05/23 05:46:04;;;;;;;11.48;4.85;;;;;;;;;;5075068;28;20066;-86
2023/05/23 05:48:30;;;;;;;12.77;4.32;;;;;;;;;;5074952;28;20073;-85
2023/05/23 05:50:55;;;;;;;12.82;4.32;;;;;;;;;;5059845;28;20036;-84
2023/05/23 05:53:21;;;;;;;11.55;4.03;;;;;;;;;;5061694;28;20025;-86
2023/05/23 05:55:46;;;;;;;6.80;3.63;;;;;;;;;;5062232;28;20032;-85
2023/05/23 05:58:11;;;;;;;11.98;4.00;;;;;;;;;;5078651;28;20070;-85
2023/05/23 06:00:41;;;;;;;9.68;4.07;;;;;;;;;;5096945;28;20073;-85
2023/05/23 06:03:09;;;;;;;7.13;3.38;;;;;;;;;;5078327;28;20467;-85
2023/05/23 06:05:39;;;;;;;10.35;3.95;;;;;;;;;;5061991;28;20024;-85
2023/05/23 06:08:05;;;;;;;8.38;3.10;;;;;;;;;;5079107;28;20039;-85
2023/05/23 06:10:30;;;;;;;6.00;3.13;;;;;;;;;;5079752;28;20024;-85
2023/05/23 06:12:57;;;;;;;7.82;3.00;;;;;;;;;;5078306;28;20475;-85
2023/05/23 06:15:22;;;;;;;6.05;3.30;;;;;;;;;;5078197;28;20035;-85
2023/05/23 06:17:48;;;;;;;6.13;3.28;;;;;;;;;;5061629;28;20032;-84
2023/05/23 06:20:13;;;;;;;8.38;3.90;;;;;;;;;;5061269;28;20052;-85
2023/05/23 06:22:39;;;;;;;7.25;3.15;;;;;;;;;;5061044;28;20062;-84
2023/05/23 06:25:05;;;;;;;6.18;3.17;;;;;;;;;;5078243;28;20027;-84
2023/05/23 06:27:31;;;;;;;8.52;3.05;;;;;;;;;;5096037;28;20390;-85
2023/05/23 06:29:56;;;;;;;6.38;2.83;;;;;;;;;;5096092;28;20028;-84
2023/05/23 06:32:22;;;;;;;6.40;3.05;;;;;;;;;;5077999;28;20538;-84
2023/05/23 06:34:47;;;;;;;5.53;3.10;;;;;;;;;;5060877;28;20036;-85
2023/05/23 06:37:12;;;;;;;4.18;2.50;;;;;;;;;;5060902;28;20131;-84
2023/05/23 06:39:38;;;;;;;5.85;3.20;;;;;;;;;;5078226;28;20032;-84
2023/05/23 06:42:03;;;;;;;4.35;2.55;;;;;;;;;;5077422;28;20033;-84
2023/05/23 06:44:29;;;;;;;4.95;2.67;;;;;;;;;;5077676;28;20127;-84
2023/05/23 06:46:56;;;;;;;4.90;2.85;;;;;;;;;;5095476;28;20024;-84
2023/05/23 06:49:25;;;;;;;5.47;3.05;;;;;;;;;;5078028;28;20162;-84
2023/05/23 06:51:51;;;;;;;5.65;3.03;;;;;;;;;;5060615;28;20485;-85
2023/05/23 06:54:17;;;;;;;4.85;2.70;;;;;;;;;;5044152;28;20123;-84
2023/05/23 06:56:42;;;;;;;5.18;3.22;;;;;;;;;;5077287;28;20107;-84
2023/05/23 06:59:07;;;;;;;5.22;3.03;;;;;;;;;;5077267;28;20024;-85
2023/05/23 07:01:33;;;;;;;6.25;2.80;;;;;;;;;;5095552;28;20494;-85
2023/05/23 07:03:58;;;;;;;5.53;2.60;;;;;;;;;;5095341;28;20103;-84
2023/05/23 07:06:26;;;;;;;5.40;2.95;;;;;;;;;;5095935;28;20032;-84
2023/05/23 07:08:52;;;;;;;5.80;2.50;;;;;;;;;;5060640;28;20020;-84
2023/05/23 07:11:17;;;;;;;5.47;3.10;;;;;;;;;;5095820;28;20490;-84
2023/05/23 07:13:42;;;;;;;4.47;2.28;;;;;;;;;;5095290;28;20110;-84
2023/05/23 07:16:08;;;;;;;5.00;2.83;;;;;;;;;;5094796;28;20488;-85
2023/05/23 07:18:33;;;;;;;5.60;2.50;;;;;;;;;;5095100;28;20039;-85
2023/05/23 07:20:58;;;;;;;4.65;2.35;;;;;;;;;;5094812;28;20034;-84
2023/05/23 07:23:24;;;;;;;3.15;2.20;;;;;;;;;;5094921;28;20462;-85
2023/05/23 07:25:50;;;;;;;4.00;2.38;;;;;;;;;;5077041;28;20028;-83
2023/05/23 07:28:15;;;;;;;3.63;2.38;;;;;;;;;;5096027;28;20040;-86
2023/05/23 07:30:41;;;;;;;5.00;2.40;;;;;;;;;;5076636;28;20035;-85
2023/05/23 07:33:07;;;;;;;4.03;2.95;;;;;;;;;;5094552;28;20110;-84
2023/05/23 07:35:32;;;;;;;4.18;2.40;;;;;;;;;;5094637;28;20368;-85
2023/05/23 07:37:57;;;;;;;4.05;2.42;;;;;;;;;;5095030;28;20109;-86
2023/05/23 07:40:23;;;;;;;4.50;1.95;;;;;;;;;;5076269;28;20028;-85
2023/05/23 07:42:48;;;;;;;3.40;1.88;;;;;;;;;;5059373;28;20031;-85
2023/05/23 07:45:14;;;;;;;4.05;2.00;;;;;;;;;;5076211;28;20055;-85
2023/05/23 07:47:40;;;;;;;4.72;2.05;;;;;;;;;;5043096;28;20039;-84
2023/05/23 07:50:07;;;;;;;6.95;2.05;;;;;;;;;;5094784;28;20039;-84
2023/05/23 07:52:32;;;;;;;6.18;2.28;;;;;;;;;;5043151;28;20069;-84
2023/05/23 07:54:58;;;;;;;3.55;1.95;;;;;;;;;;5059551;28;20462;-84
2023/05/23 07:57:24;;;;;;;6.82;2.30;;;;;;;;;;5076033;28;20023;-85
2023/05/23 07:59:50;;;;;;;8.52;2.22;;;;;;;;;;5059666;28;20524;-84
2023/05/23 08:02:16;;;;;;;5.43;2.05;;;;;;;;;;5076105;28;20036;-84
2023/05/23 08:04:41;;;;;;;5.82;2.50;;;;;;;;;;5095117;28;20036;-84
2023/05/23 08:07:08;;;;;;;7.40;1.58;;;;;;;;;;5094790;28;20398;-84
2023/05/23 08:09:34;;;;;;;7.35;2.08;;;;;;;;;;5096746;28;20489;-84
2023/05/23 08:11:59;;;;;;;5.53;2.03;;;;;;;;;;5094341;28;20051;-85
2023/05/23 08:14:25;;;;;;;5.53;1.88;;;;;;;;;;5075524;28;20024;-85
2023/05/23 08:16:50;;;;;;;5.15;2.22;;;;;;;;;;5094180;28;20020;-85
2023/05/23 08:19:16;;;;;;;4.47;2.05;;;;;;;;;;5094205;28;20075;-84
2023/05/23 08:21:42;;;;;;;7.60;2.20;;;;;;;;;;5075788;28;20046;-84
2023/05/23 08:24:07;;;;;;;5.03;2.15;;;;;;;;;;5093718;28;20039;-85
2023/05/23 08:26:34;;;;;;;7.18;2.42;;;;;;;;;;5075841;28;20024;-85
2023/05/23 08:29:01;;;;;;;10.88;2.90;;;;;;;;;;5093854;28;20020;-85
2023/05/23 08:31:27;;;;;;;9.77;2.65;;;;;;;;;;5076195;28;20028;-84
2023/05/23 08:33:53;;;;;;;7.15;2.58;;;;;;;;;;5075852;28;20024;-85
2023/05/23 08:36:18;;;;;;;6.80;2.55;;;;;;;;;;5076037;28;20024;-84
2023/05/23 08:38:43;;;;;;;7.38;2.30;;;;;;;;;;5058839;28;20479;-84
2023/05/23 08:41:16;;;;;;;7.82;2.40;;;;;;;;;;5093769;28;20020;-85
2023/05/23 08:43:41;;;;;;;6.55;2.10;;;;;;;;;;5058922;28;20044;-85
2023/05/23 08:46:07;;;;;;;6.93;2.45;;;;;;;;;;5076081;28;20451;-85
2023/05/23 08:48:34;;;;;;;9.95;2.47;;;;;;;;;;5043520;28;20107;-85
2023/05/23 08:51:00;;;;;;;8.10;2.00;;;;;;;;;;5075379;28;20390;-85
2023/05/23 08:53:26;;;;;;;3.78;1.95;;;;;;;;;;5093331;28;20024;-85
2023/05/23 08:55:53;;;;;;;5.82;1.95;;;;;;;;;;5075538;28;20497;-84
2023/05/23 08:58:23;;;;;;;7.85;2.17;;;;;;;;;;5093458;28;20020;-85
2023/05/23 09:00:51;;;;;;;5.13;1.92;;;;;;;;;;5094027;28;20111;-85
2023/05/23 09:03:16;;;;;;;6.15;2.35;;;;;;;;;;5075474;28;20030;-85
2023/05/23 09:05:42;;;;;;;4.82;1.90;;;;;;;;;;5075106;28;20028;-84
2023/05/23 09:08:08;;;;;;;7.60;2.05;;;;;;;;;;5099622;28;20501;-85
2023/05/23 09:10:34;;;;;;;4.80;2.25;;;;;;;;;;5104803;28;20028;-85
2023/05/23 09:13:00;;;;;;;8.85;2.38;;;;;;;;;;5058902;28;20066;-85
2023/05/23 09:15:26;;;;;;;8.63;2.13;;;;;;;;;;5094217;28;20032;-85
2023/05/23 09:17:51;;;;;;;5.55;2.05;;;;;;;;;;5070717;28;20028;-85
2023/05/23 09:20:18;;;;;;;6.85;2.00;;;;;;;;;;5113886;28;20130;-83
2023/05/23 09:22:47;;;;;;;5.78;2.28;;;;;;;;;;5064797;28;20020;-85
2023/05/23 09:25:13;;;;;;;5.78;2.60;;;;;;;;;;5022745;28;20033;-83
2023/05/23 09:27:38;;;;;;;3.40;1.63;;;;;;;;;;5077638;28;20030;-84
2023/05/23 09:30:11;;;;;;;6.00;2.30;;;;;;;;;;5099668;28;20027;-85
2023/05/23 09:32:36;;;;;;;14.93;2.30;;;;;;;;;;5099299;28;20028;-84
2023/05/23 09:35:03;;;;;;;8.75;2.13;;;;;;;;;;5099299;28;20576;-86
2023/05/23 09:37:34;;;;;;;7.88;2.35;;;;;;;;;;5090893;28;20394;-84
2023/05/23 09:40:04;;;;;;;6.75;2.22;;;;;;;;;;5117957;28;20023;-85
2023/05/23 09:42:31;;;;;;;7.43;2.13;;;;;;;;;;5099785;28;20036;-86
2023/05/23 09:44:57;;;;;;;6.28;2.00;;;;;;;;;;5099067;28;20040;-85
2023/05/23 09:47:23;;;;;;;6.88;2.40;;;;;;;;;;5099366;28;20557;-87
2023/05/23 09:49:50;;;;;;;5.35;2.40;;;;;;;;;;5082580;28;20031;-85
2023/05/23 09:52:15;;;;;;;11.23;2.53;;;;;;;;;;5099806;28;20130;-85
2023/05/23 09:54:41;;;;;;;21.85;2.45;;;;;;;;;;5082715;28;20452;-86
2023/05/23 09:57:09;;;;;;;5.15;2.15;;;;;;;;;;5101665;28;20031;-84
2023/05/23 09:59:38;;;;;;;6.15;2.28;;;;;;;;;;5107849;28;20024;-83
2023/05/23 10:02:06;;;;;;;6.70;2.20;;;;;;;;;;5116163;28;20046;-84
2023/05/23 10:04:33;;;;;;;10.10;1.95;;;;;;;;;;5096087;28;20531;-83
2023/05/23 10:07:04;;;;;;;13.55;2.30;;;;;;;;;;5088517;28;20057;-83
2023/05/23 10:09:32;;;;;;;8.77;2.13;;;;;;;;;;5094664;28;20057;-84
2023/05/23 10:12:16;;;;;;;6.07;2.00;;;;;;;;;;5111511;28;20090;-84
2023/05/23 10:14:44;;;;;;;6.82;2.20;;;;;;;;;;5127314;28;20032;-84
2023/05/23 10:17:18;;;;;;;5.88;2.30;;;;;;;;;;5106684;28;20055;-84
2023/05/23 10:20:07;;;;;;;5.47;2.42;;;;;;;;;;5104826;28;20031;-82
2023/05/23 10:22:35;;;;;;;7.03;2.28;;;;;;;;;;5102161;28;20490;-84
2023/05/23 10:25:04;;;;;;;5.38;2.10;;;;;;;;;;5066002;28;20125;-82
2023/05/23 10:27:30;;;;;;;7.05;2.50;;;;;;;;;;5099534;28;20031;-84
2023/05/23 10:29:56;;;;;;;8.75;2.00;;;;;;;;;;5116938;28;20023;-84
2023/05/23 10:32:22;;;;;;;6.60;2.20;;;;;;;;;;5116778;28;20469;-84
2023/05/23 10:35:01;;;;;;;6.20;2.50;;;;;;;;;;5081093;28;20113;-85
2023/05/23 10:37:39;;;;;;;6.47;2.28;;;;;;;;;;5097699;28;20458;-84
2023/05/23 10:40:20;;;;;;;7.55;2.13;;;;;;;;;;5080960;28;20389;-85
2023/05/23 10:42:55;;;;;;;11.90;2.10;;;;;;;;;;5116563;28;20431;-87
2023/05/23 10:45:21;;;;;;;7.05;2.20;;;;;;;;;;5097746;28;20066;-86
2023/05/23 10:47:48;;;;;;;5.80;2.30;;;;;;;;;;5098266;28;20019;-86
2023/05/23 10:50:32;;;;;;;13.45;2.30;;;;;;;;;;5116236;28;20027;-86
2023/05/23 10:53:03;;;;;;;7.30;2.40;;;;;;;;;;5097902;28;20035;-86
2023/05/23 10:55:35;;;;;;;5.88;2.05;;;;;;;;;;5097717;28;20505;-87
2023/05/23 10:58:21;;;;;;;6.75;2.38;;;;;;;;;;5081221;28;20059;-86
2023/05/23 11:00:55;;;;;;;7.25;2.40;;;;;;;;;;5081474;28;20063;-84
2023/05/23 11:03:50;;;;;;;6.40;1.80;;;;;;;;;;5081033;28;20501;-85
2023/05/23 11:06:40;;;;;;;3.85;1.85;;;;;;;;;;5060664;28;20075;-85
2023/05/23 11:09:08;;;;;;;6.32;2.42;;;;;;;;;;5097565;28;20661;-87
2023/05/23 11:11:49;;;;;;;10.75;2.53;;;;;;;;;;5116113;28;20056;-87
2023/05/23 11:14:15;;;;;;;5.78;2.13;;;;;;;;;;5120165;28;20020;-88
2023/05/23 11:16:42;;;;;;;7.07;1.95;;;;;;;;;;5121732;28;20610;-86
2023/05/23 11:19:17;;;;;;;5.63;2.30;;;;;;;;;;5101943;28;20062;-87
2023/05/23 11:21:43;;;;;;;11.95;2.30;;;;;;;;;;5119193;28;20095;-87
2023/05/23 11:24:09;;;;;;;6.05;1.92;;;;;;;;;;5089928;28;20032;-88
2023/05/23 11:26:34;;;;;;;8.98;2.35;;;;;;;;;;5127212;28;20119;-89
2023/05/23 11:29:02;;;;;;;5.93;1.83;;;;;;;;;;5063622;28;20035;-88
2023/05/23 11:31:27;;;;;;;4.22;1.83;;;;;;;;;;5115518;28;20063;-88
2023/05/23 11:33:53;;;;;;;13.15;2.13;;;;;;;;;;5115133;28;20059;-87
2023/05/23 11:36:23;;;;;;;5.00;2.17;;;;;;;;;;5097084;28;20028;-88
2023/05/23 11:38:51;;;;;;;7.75;2.38;;;;;;;;;;5097153;28;20084;-86
2023/05/23 11:41:17;;;;;;;5.80;2.00;;;;;;;;;;5097305;28;20058;-86
2023/05/23 11:43:52;;;;;;;5.38;1.98;;;;;;;;;;5096706;28;20473;-86
2023/05/23 11:46:17;;;;;;;6.20;2.10;;;;;;;;;;5096216;28;20042;-85
2023/05/23 11:48:47;;;;;;;5.85;1.70;;;;;;;;;;5114390;28;20111;-86
2023/05/23 11:51:13;;;;;;;5.07;1.90;;;;;;;;;;5079407;28;20110;-86
2023/05/23 11:53:38;;;;;;;5.75;2.15;;;;;;;;;;5096453;28;20019;-87
2023/05/23 11:56:04;;;;;;;6.53;2.33;;;;;;;;;;5096859;28;20049;-85
2023/05/23 11:58:32;;;;;;;8.13;2.58;;;;;;;;;;5096196;28;20123;-86
2023/05/23 12:01:05;;;;;;;13.73;2.10;;;;;;;;;;5079524;28;20027;-87
2023/05/23 12:03:32;;;;;;;13.10;2.70;;;;;;;;;;5097595;28;20488;-86
2023/05/23 12:05:58;;;;;;;13.75;3.30;;;;;;;;;;5079931;28;20043;-86
2023/05/23 12:08:26;;;;;;;16.23;4.13;;;;;;;;;;5097355;28;20467;-87
2023/05/23 12:10:53;;;;;;;12.98;3.67;;;;;;;;;;5082154;28;20476;-86
2023/05/23 12:13:19;;;;;;;17.00;4.20;;;;;;;;;;5116839;28;20027;-88
2023/05/23 12:15:46;;;;;;;10.32;3.08;;;;;;;;;;5115147;28;20020;-87
2023/05/23 12:18:11;;;;;;;11.52;3.15;;;;;;;;;;5096450;28;20015;-88
2023/05/23 12:20:37;;;;;;;17.27;3.85;;;;;;;;;;5116808;28;20055;-84
2023/05/23 12:23:05;;;;;;;16.60;3.10;;;;;;;;;;5079039;28;20028;-84
2023/05/23 12:25:43;;;;;;;6.80;2.67;;;;;;;;;;5076726;28;20040;-83
2023/05/23 12:28:12;;;;;;;7.15;2.70;;;;;;;;;;5072818;28;20390;-84
2023/05/23 12:30:41;;;;;;;9.93;2.40;;;;;;;;;;5055450;28;20086;-84
2023/05/23 12:33:08;;;;;;;8.00;2.72;;;;;;;;;;5054992;28;20052;-84
2023/05/23 12:35:34;;;;;;;13.85;3.28;;;;;;;;;;5038537;22;20125;-84
2023/05/23 12:37:59;;;;;;;9.77;2.78;;;;;;;;;;5017723;28;20033;-84
2023/05/23 12:40:25;;;;;;;6.93;2.22;;;;;;;;;;5016696;28;20416;-84
2023/05/23 12:42:55;;;;;;;8.02;2.28;;;;;;;;;;5003107;28;20044;-85
2023/05/23 12:45:35;;;;;;;5.78;1.88;;;;;;;;;;5017953;28;20385;-85
2023/05/23 12:48:04;;;;;;;6.22;2.08;;;;;;;;;;5019217;28;20055;-85
2023/05/23 12:50:29;;;;;;;8.23;3.17;;;;;;;;;;5003238;28;20061;-85
2023/05/23 12:52:55;;;;;;;5.70;2.00;;;;;;;;;;5002186;28;20083;-85
2023/05/23 12:55:21;;;;;;;8.05;2.40;;;;;;;;;;5018019;28;20029;-85
2023/05/23 12:57:47;;;;;;;5.40;1.73;;;;;;;;;;5001975;28;20075;-84
2023/05/23 13:00:12;;;;;;;7.35;2.30;;;;;;;;;;5019815;28;20037;-84
2023/05/23 13:02:38;;;;;;;25.10;2.30;;;;;;;;;;5007058;28;20028;-84
2023/05/23 13:05:04;;;;;;;5.78;2.15;;;;;;;;;;5022227;28;20029;-85
2023/05/23 13:07:30;;;;;;;6.07;1.85;;;;;;;;;;5021824;28;20030;-84
2023/05/23 13:09:55;;;;;;;5.70;1.85;;;;;;;;;;5023766;28;20033;-85
2023/05/23 13:12:21;;;;;;;4.80;1.88;;;;;;;;;;5005825;28;20033;-86
2023/05/23 13:14:48;;;;;;;8.15;1.90;;;;;;;;;;5006551;28;20025;-86
2023/05/23 13:17:13;;;;;;;5.63;1.63;;;;;;;;;;5020176;28;20053;-85
2023/05/23 13:19:38;;;;;;;6.82;2.25;;;;;;;;;;5003585;28;20115;-86
2023/05/23 13:22:09;;;;;;;5.43;1.85;;;;;;;;;;5039809;28;20033;-86
2023/05/23 13:24:35;;;;;;;5.57;1.75;;;;;;;;;;5019679;28;20028;-85
2023/05/23 13:27:00;;;;;;;4.45;1.73;;;;;;;;;;5020292;28;20109;-86
2023/05/23 13:29:26;;;;;;;5.55;2.00;;;;;;;;;;5019617;28;20112;-84
2023/05/23 13:31:52;;;;;;;4.38;1.67;;;;;;;;;;5019296;28;20476;-84
2023/05/23 13:34:18;;;;;;;4.75;1.80;;;;;;;;;;5002750;28;20025;-85
2023/05/23 13:36:43;;;;;;;8.23;2.22;;;;;;;;;;5002559;28;20037;-86
2023/05/23 13:39:08;;;;;;;5.40;1.98;;;;;;;;;;5036559;28;20447;-84
2023/05/23 13:41:34;;;;;;;3.90;1.70;;;;;;;;;;5019093;28;20032;-85
2023/05/23 13:43:59;;;;;;;6.70;1.90;;;;;;;;;;5036434;28;20022;-85
2023/05/23 13:46:25;;;;;;;6.63;1.85;;;;;;;;;;5019111;28;20387;-85
2023/05/23 13:48:50;;;;;;;4.90;1.98;;;;;;;;;;5018982;28;20033;-84
2023/05/23 13:51:15;;;;;;;5.10;1.63;;;;;;;;;;5002723;28;20037;-84
2023/05/23 13:53:41;;;;;;;5.55;1.98;;;;;;;;;;5002254;28;20028;-85
2023/05/23 13:56:06;;;;;;;8.20;2.13;;;;;;;;;;5018505;28;20033;-84
2023/05/23 13:58:31;;;;;;;3.65;1.45;;;;;;;;;;5035778;28;20480;-84
2023/05/23 14:00:57;;;;;;;3.97;1.60;;;;;;;;;;5037078;28;20096;-85
2023/05/23 14:03:23;;;;;;;10.80;2.60;;;;;;;;;;5035521;28;20033;-84
2023/05/23 14:05:48;;;;;;;4.95;1.90;;;;;;;;;;5035978;28;20026;-84
2023/05/23 14:08:14;;;;;;;3.78;1.48;;;;;;;;;;5017817;28;20524;-84
2023/05/23 14:10:40;;;;;;;6.50;2.03;;;;;;;;;;5017724;28;20060;-83
2023/05/23 14:13:06;;;;;;;3.80;1.50;;;;;;;;;;5017263;28;20104;-83
2023/05/23 14:15:32;;;;;;;5.40;1.67;;;;;;;;;;5017820;28;20034;-84
2023/05/23 14:17:57;;;;;;;6.32;2.03;;;;;;;;;;5001701;28;20463;-84
2023/05/23 14:20:23;;;;;;;6.03;2.13;;;;;;;;;;5017657;28;20033;-84
2023/05/23 14:22:49;;;;;;;6.43;1.92;;;;;;;;;;5033474;28;20060;-84
2023/05/23 14:25:15;;;;;;;2.45;1.42;;;;;;;;;;5001312;28;20484;-83
2023/05/23 14:27:41;;;;;;;4.75;1.83;;;;;;;;;;5017626;28;20029;-83
2023/05/23 14:30:07;;;;;;;4.20;1.70;;;;;;;;;;5017425;28;20100;-82
2023/05/23 14:32:37;;;;;;;4.13;1.95;;;;;;;;;;5035008;28;20053;-81
2023/05/23 14:35:06;;;;;;;5.75;1.80;;;;;;;;;;5018008;28;20025;-84
2023/05/23 14:37:32;;;;;;;4.13;2.15;;;;;;;;;;5017328;28;20033;-82
2023/05/23 14:39:57;;;;;;;4.45;1.55;;;;;;;;;;5035164;28;20156;-84